sensor_id;sensor_type;location;lat;lon;timestamp;P1;durP1;ratioP1;P2;durP2;ratioP2
9108;SDS011;4590;51.462;6.692;2023-04-15T00:01:24;8.82;;;4.85;;
9108;SDS011;4590;51.462;6.692;2023-04-15T00:03:51;7.75;;;4.32;;
9108;SDS011;4590;51.462;6.692;2023-04-15T00:06:18;7.20;;;4.70;;
9108;SDS011;4590;51.462;6.692;2023-04-15T00:08:45;8.63;;;4.30;;
9108;SDS011;4590;51.462;6.692;2023-04-15T00:11:11;7.10;;;4.43;;
9108;SDS011;4590;51.462;6.692;2023-04-15T00:13:37;6.75;;;4.40;;
9108;SDS011;4590;51.462;6.692;2023-04-15T00:16:03;9.00;;;4.55;;
9108;SDS011;4590;51.462;6.692;2023-04-15T00:18:30;6.75;;;4.35;;
9108;SDS011;4590;51.462;6.692;2023-04-15T00:20:56;9.77;;;4.63;;
9108;SDS011;4590;51.462;6.692;2023-04-15T00:23:23;7.68;;;4.72;;
9108;SDS011;4590;51.462;6.692;2023-04-15T00:25:49;8.48;;;5.82;;
9108;SDS011;4590;51.462;6.692;2023-04-15T00:28:15;8.27;;;5.43;;
9108;SDS011;4590;51.462;6.692;2023-04-15T00:30:41;7.43;;;4.70;;
9108;SDS011;4590;51.462;6.692;2023-04-15T00:33:07;9.88;;;4.80;;
9108;SDS011;4590;51.462;6.692;2023-04-15T00:35:32;6.67;;;4.70;;
9108;SDS011;4590;51.462;6.692;2023-04-15T00:37:59;8.37;;;5.27;;
9108;SDS011;4590;51.462;6.692;2023-04-15T00:40:25;8.98;;;5.32;;
9108;SDS011;4590;51.462;6.692;2023-04-15T00:42:51;6.15;;;4.55;;
9108;SDS011;4590;51.462;6.692;2023-04-15T00:45:17;8.35;;;4.88;;
9108;SDS011;4590;51.462;6.692;2023-04-15T00:47:43;6.47;;;4.70;;
9108;SDS011;4590;51.462;6.692;2023-04-15T00:50:09;7.55;;;4.45;;
9108;SDS011;4590;51.462;6.692;2023-04-15T00:52:36;7.10;;;4.97;;
9108;SDS011;4590;51.462;6.692;2023-04-15T00:57:30;7.78;;;4.70;;
9108;SDS011;4590;51.462;6.692;2023-04-15T00:59:55;6.70;;;4.45;;
9108;SDS011;4590;51.462;6.692;2023-04-15T01:02:21;8.32;;;5.65;;
9108;SDS011;4590;51.462;6.692;2023-04-15T01:04:48;8.35;;;4.85;;
9108;SDS011;4590;51.462;6.692;2023-04-15T01:07:13;8.43;;;5.35;;
9108;SDS011;4590;51.462;6.692;2023-04-15T01:09:39;6.10;;;4.80;;
9108;SDS011;4590;51.462;6.692;2023-04-15T01:12:06;8.27;;;5.30;;
9108;SDS011;4590;51.462;6.692;2023-04-15T01:14:34;8.38;;;4.95;;
9108;SDS011;4590;51.462;6.692;2023-04-15T01:17:00;7.07;;;5.45;;
9108;SDS011;4590;51.462;6.692;2023-04-15T01:19:26;8.25;;;4.70;;
9108;SDS011;4590;51.462;6.692;2023-04-15T01:24:18;8.07;;;5.00;;
9108;SDS011;4590;51.462;6.692;2023-04-15T01:26:44;10.13;;;5.70;;
9108;SDS011;4590;51.462;6.692;2023-04-15T01:29:10;8.35;;;4.97;;
9108;SDS011;4590;51.462;6.692;2023-04-15T01:31:37;7.95;;;5.32;;
9108;SDS011;4590;51.462;6.692;2023-04-15T01:34:02;11.32;;;5.78;;
9108;SDS011;4590;51.462;6.692;2023-04-15T01:36:28;7.97;;;6.03;;
9108;SDS011;4590;51.462;6.692;2023-04-15T01:38:55;8.53;;;5.67;;
9108;SDS011;4590;51.462;6.692;2023-04-15T01:41:27;8.05;;;5.15;;
9108;SDS011;4590;51.462;6.692;2023-04-15T01:43:53;11.15;;;6.45;;
9108;SDS011;4590;51.462;6.692;2023-04-15T01:46:19;10.82;;;6.28;;
9108;SDS011;4590;51.462;6.692;2023-04-15T01:48:44;8.65;;;6.15;;
9108;SDS011;4590;51.462;6.692;2023-04-15T01:51:10;10.10;;;5.30;;
9108;SDS011;4590;51.462;6.692;2023-04-15T01:53:36;10.55;;;6.43;;
9108;SDS011;4590;51.462;6.692;2023-04-15T01:56:02;7.65;;;5.40;;
9108;SDS011;4590;51.462;6.692;2023-04-15T01:58:28;9.95;;;6.60;;
9108;SDS011;4590;51.462;6.692;2023-04-15T02:00:54;7.57;;;5.68;;
9108;SDS011;4590;51.462;6.692;2023-04-15T02:03:20;8.43;;;5.93;;
9108;SDS011;4590;51.462;6.692;2023-04-15T02:05:45;9.25;;;5.70;;
9108;SDS011;4590;51.462;6.692;2023-04-15T02:08:11;7.53;;;5.87;;
9108;SDS011;4590;51.462;6.692;2023-04-15T02:10:37;9.52;;;6.55;;
9108;SDS011;4590;51.462;6.692;2023-04-15T02:13:03;7.93;;;5.28;;
9108;SDS011;4590;51.462;6.692;2023-04-15T02:33:31;10.27;;;6.18;;
9108;SDS011;4590;51.462;6.692;2023-04-15T02:41:10;8.88;;;5.88;;
9108;SDS011;4590;51.462;6.692;2023-04-15T02:53:56;7.28;;;5.75;;
9108;SDS011;4590;51.462;6.692;2023-04-15T02:56:22;8.73;;;5.70;;
9108;SDS011;4590;51.462;6.692;2023-04-15T02:58:48;8.32;;;5.68;;
9108;SDS011;4590;51.462;6.692;2023-04-15T03:01:14;9.82;;;5.30;;
9108;SDS011;4590;51.462;6.692;2023-04-15T03:03:40;8.15;;;5.43;;
9108;SDS011;4590;51.462;6.692;2023-04-15T03:06:06;9.75;;;5.80;;
9108;SDS011;4590;51.462;6.692;2023-04-15T03:08:32;7.13;;;5.43;;
9108;SDS011;4590;51.462;6.692;2023-04-15T03:10:58;8.47;;;6.20;;
9108;SDS011;4590;51.462;6.692;2023-04-15T03:13:24;9.15;;;6.40;;
9108;SDS011;4590;51.462;6.692;2023-04-15T03:15:50;7.63;;;5.67;;
9108;SDS011;4590;51.462;6.692;2023-04-15T03:18:16;8.83;;;5.83;;
9108;SDS011;4590;51.462;6.692;2023-04-15T03:20:41;11.82;;;5.60;;
9108;SDS011;4590;51.462;6.692;2023-04-15T03:23:07;8.83;;;5.60;;
9108;SDS011;4590;51.462;6.692;2023-04-15T03:25:32;10.37;;;6.37;;
9108;SDS011;4590;51.462;6.692;2023-04-15T03:27:58;8.63;;;5.90;;
9108;SDS011;4590;51.462;6.692;2023-04-15T03:30:24;10.27;;;6.65;;
9108;SDS011;4590;51.462;6.692;2023-04-15T03:32:50;7.70;;;5.53;;
9108;SDS011;4590;51.462;6.692;2023-04-15T03:35:15;8.73;;;6.03;;
9108;SDS011;4590;51.462;6.692;2023-04-15T03:37:41;9.27;;;5.93;;
9108;SDS011;4590;51.462;6.692;2023-04-15T03:40:07;8.87;;;5.90;;
9108;SDS011;4590;51.462;6.692;2023-04-15T03:42:33;9.48;;;6.18;;
9108;SDS011;4590;51.462;6.692;2023-04-15T03:44:59;8.07;;;6.15;;
9108;SDS011;4590;51.462;6.692;2023-04-15T03:47:25;8.60;;;5.63;;
9108;SDS011;4590;51.462;6.692;2023-04-15T03:49:50;10.27;;;6.20;;
9108;SDS011;4590;51.462;6.692;2023-04-15T03:52:16;9.23;;;6.28;;
9108;SDS011;4590;51.462;6.692;2023-04-15T03:54:41;8.03;;;5.83;;
9108;SDS011;4590;51.462;6.692;2023-04-15T03:57:07;9.97;;;5.93;;
9108;SDS011;4590;51.462;6.692;2023-04-15T03:59:33;8.77;;;5.73;;
9108;SDS011;4590;51.462;6.692;2023-04-15T04:04:25;9.88;;;5.50;;
9108;SDS011;4590;51.462;6.692;2023-04-15T04:06:50;12.03;;;6.60;;
9108;SDS011;4590;51.462;6.692;2023-04-15T04:09:16;11.43;;;5.43;;
9108;SDS011;4590;51.462;6.692;2023-04-15T04:11:41;8.10;;;5.90;;
9108;SDS011;4590;51.462;6.692;2023-04-15T04:14:07;9.00;;;6.37;;
9108;SDS011;4590;51.462;6.692;2023-04-15T04:16:32;10.57;;;6.50;;
9108;SDS011;4590;51.462;6.692;2023-04-15T04:18:58;8.47;;;5.90;;
9108;SDS011;4590;51.462;6.692;2023-04-15T04:21:23;7.20;;;4.93;;
9108;SDS011;4590;51.462;6.692;2023-04-15T04:23:50;9.15;;;5.90;;
9108;SDS011;4590;51.462;6.692;2023-04-15T04:26:16;8.57;;;5.88;;
9108;SDS011;4590;51.462;6.692;2023-04-15T04:28:42;7.60;;;5.40;;
9108;SDS011;4590;51.462;6.692;2023-04-15T04:31:07;7.40;;;5.50;;
9108;SDS011;4590;51.462;6.692;2023-04-15T04:33:33;9.40;;;6.33;;
9108;SDS011;4590;51.462;6.692;2023-04-15T04:35:58;9.47;;;5.83;;
9108;SDS011;4590;51.462;6.692;2023-04-15T04:38:24;7.85;;;5.90;;
9108;SDS011;4590;51.462;6.692;2023-04-15T04:40:50;7.13;;;5.47;;
9108;SDS011;4590;51.462;6.692;2023-04-15T04:43:15;9.20;;;5.77;;
9108;SDS011;4590;51.462;6.692;2023-04-15T04:45:41;8.27;;;5.40;;
9108;SDS011;4590;51.462;6.692;2023-04-15T04:48:07;8.20;;;5.10;;
9108;SDS011;4590;51.462;6.692;2023-04-15T04:50:34;6.93;;;5.38;;
9108;SDS011;4590;51.462;6.692;2023-04-15T04:53:00;8.43;;;5.38;;
9108;SDS011;4590;51.462;6.692;2023-04-15T04:55:27;8.90;;;5.80;;
9108;SDS011;4590;51.462;6.692;2023-04-15T04:57:58;7.30;;;5.65;;
9108;SDS011;4590;51.462;6.692;2023-04-15T05:00:23;9.30;;;6.57;;
9108;SDS011;4590;51.462;6.692;2023-04-15T05:02:49;8.13;;;6.20;;
9108;SDS011;4590;51.462;6.692;2023-04-15T05:05:15;9.83;;;6.10;;
9108;SDS011;4590;51.462;6.692;2023-04-15T05:07:40;8.83;;;6.10;;
9108;SDS011;4590;51.462;6.692;2023-04-15T05:10:06;9.37;;;6.03;;
9108;SDS011;4590;51.462;6.692;2023-04-15T05:12:32;7.63;;;6.13;;
9108;SDS011;4590;51.462;6.692;2023-04-15T05:14:58;8.40;;;6.13;;
9108;SDS011;4590;51.462;6.692;2023-04-15T05:17:23;7.57;;;5.50;;
9108;SDS011;4590;51.462;6.692;2023-04-15T05:19:49;7.73;;;5.50;;
9108;SDS011;4590;51.462;6.692;2023-04-15T05:22:14;8.37;;;6.47;;
9108;SDS011;4590;51.462;6.692;2023-04-15T05:24:40;9.03;;;5.87;;
9108;SDS011;4590;51.462;6.692;2023-04-15T05:27:05;8.07;;;5.63;;
9108;SDS011;4590;51.462;6.692;2023-04-15T05:29:32;8.52;;;5.93;;
9108;SDS011;4590;51.462;6.692;2023-04-15T05:31:58;7.63;;;5.50;;
9108;SDS011;4590;51.462;6.692;2023-04-15T05:34:24;9.48;;;6.30;;
9108;SDS011;4590;51.462;6.692;2023-04-15T05:36:50;7.87;;;5.83;;
9108;SDS011;4590;51.462;6.692;2023-04-15T05:39:16;7.80;;;6.18;;
9108;SDS011;4590;51.462;6.692;2023-04-15T05:41:42;9.32;;;6.18;;
9108;SDS011;4590;51.462;6.692;2023-04-15T05:44:07;9.70;;;5.97;;
9108;SDS011;4590;51.462;6.692;2023-04-15T05:46:33;10.73;;;6.50;;
9108;SDS011;4590;51.462;6.692;2023-04-15T05:48:58;8.97;;;6.90;;
9108;SDS011;4590;51.462;6.692;2023-04-15T05:51:24;9.53;;;6.80;;
9108;SDS011;4590;51.462;6.692;2023-04-15T05:53:50;9.05;;;6.63;;
9108;SDS011;4590;51.462;6.692;2023-04-15T05:56:15;8.77;;;6.17;;
9108;SDS011;4590;51.462;6.692;2023-04-15T06:03:51;9.35;;;6.45;;
9108;SDS011;4590;51.462;6.692;2023-04-15T06:06:17;9.23;;;7.00;;
9108;SDS011;4590;51.462;6.692;2023-04-15T06:08:42;11.50;;;7.53;;
9108;SDS011;4590;51.462;6.692;2023-04-15T06:11:08;9.40;;;7.23;;
9108;SDS011;4590;51.462;6.692;2023-04-15T06:13:33;9.73;;;7.23;;
9108;SDS011;4590;51.462;6.692;2023-04-15T06:15:59;9.93;;;7.53;;
9108;SDS011;4590;51.462;6.692;2023-04-15T06:18:24;11.40;;;7.80;;
9108;SDS011;4590;51.462;6.692;2023-04-15T06:20:50;12.80;;;7.63;;
9108;SDS011;4590;51.462;6.692;2023-04-15T06:23:17;10.60;;;8.15;;
9108;SDS011;4590;51.462;6.692;2023-04-15T06:25:42;10.13;;;7.47;;
9108;SDS011;4590;51.462;6.692;2023-04-15T06:28:08;12.33;;;7.70;;
9108;SDS011;4590;51.462;6.692;2023-04-15T06:30:33;9.97;;;7.27;;
9108;SDS011;4590;51.462;6.692;2023-04-15T06:40:45;11.38;;;7.72;;
9108;SDS011;4590;51.462;6.692;2023-04-15T06:43:11;10.87;;;7.30;;
9108;SDS011;4590;51.462;6.692;2023-04-15T06:45:36;10.27;;;7.75;;
9108;SDS011;4590;51.462;6.692;2023-04-15T06:48:02;10.63;;;7.70;;
9108;SDS011;4590;51.462;6.692;2023-04-15T06:50:27;11.60;;;8.03;;
9108;SDS011;4590;51.462;6.692;2023-04-15T06:52:54;10.97;;;8.07;;
9108;SDS011;4590;51.462;6.692;2023-04-15T06:55:20;10.75;;;7.63;;
9108;SDS011;4590;51.462;6.692;2023-04-15T06:57:45;11.70;;;7.93;;
9108;SDS011;4590;51.462;6.692;2023-04-15T07:00:11;11.23;;;8.30;;
9108;SDS011;4590;51.462;6.692;2023-04-15T07:02:37;12.07;;;7.40;;
9108;SDS011;4590;51.462;6.692;2023-04-15T07:05:04;11.60;;;7.83;;
9108;SDS011;4590;51.462;6.692;2023-04-15T07:07:31;11.70;;;7.68;;
9108;SDS011;4590;51.462;6.692;2023-04-15T07:09:57;11.02;;;7.30;;
9108;SDS011;4590;51.462;6.692;2023-04-15T07:12:23;13.50;;;7.75;;
9108;SDS011;4590;51.462;6.692;2023-04-15T07:14:50;10.80;;;6.72;;
9108;SDS011;4590;51.462;6.692;2023-04-15T07:17:15;9.87;;;6.60;;
9108;SDS011;4590;51.462;6.692;2023-04-15T07:19:41;9.50;;;5.72;;
9108;SDS011;4590;51.462;6.692;2023-04-15T07:22:07;7.65;;;5.03;;
9108;SDS011;4590;51.462;6.692;2023-04-15T08:37:09;6.30;;;2.15;;
9108;SDS011;4590;51.462;6.692;2023-04-15T08:39:34;3.43;;;2.23;;
9108;SDS011;4590;51.462;6.692;2023-04-15T08:42:01;4.23;;;2.10;;
9108;SDS011;4590;51.462;6.692;2023-04-15T08:44:32;3.75;;;2.08;;
9108;SDS011;4590;51.462;6.692;2023-04-15T08:47:25;3.08;;;2.20;;
9108;SDS011;4590;51.462;6.692;2023-04-15T11:40:39;3.58;;;2.22;;
